sensor_id;sensor_type;location;lat;lon;timestamp;P1;durP1;ratioP1;P2;durP2;ratioP2
45198;SDS011;30941;46.422;18.772;2023-03-23T00:00:52;11.52;;;7.20;;
45198;SDS011;30941;46.422;18.772;2023-03-23T00:03:19;9.77;;;7.10;;
45198;SDS011;30941;46.422;18.772;2023-03-23T00:05:46;9.32;;;6.50;;
45198;SDS011;30941;46.422;18.772;2023-03-23T00:08:16;10.57;;;6.88;;
45198;SDS011;30941;46.422;18.772;2023-03-23T00:10:49;11.10;;;7.05;;
45198;SDS011;30941;46.422;18.772;2023-03-23T00:13:21;8.95;;;5.95;;
45198;SDS011;30941;46.422;18.772;2023-03-23T00:15:48;11.10;;;7.22;;
45198;SDS011;30941;46.422;18.772;2023-03-23T00:18:15;9.85;;;6.97;;
45198;SDS011;30941;46.422;18.772;2023-03-23T00:20:53;10.98;;;6.65;;
45198;SDS011;30941;46.422;18.772;2023-03-23T00:23:21;10.63;;;6.13;;
45198;SDS011;30941;46.422;18.772;2023-03-23T00:25:53;10.88;;;6.47;;
45198;SDS011;30941;46.422;18.772;2023-03-23T00:28:23;9.43;;;6.80;;
45198;SDS011;30941;46.422;18.772;2023-03-23T00:33:30;12.63;;;6.78;;
45198;SDS011;30941;46.422;18.772;2023-03-23T00:35:58;9.82;;;6.38;;
45198;SDS011;30941;46.422;18.772;2023-03-23T00:38:24;8.50;;;6.20;;
45198;SDS011;30941;46.422;18.772;2023-03-23T00:40:50;11.88;;;7.25;;
45198;SDS011;30941;46.422;18.772;2023-03-23T00:43:16;11.30;;;7.10;;
45198;SDS011;30941;46.422;18.772;2023-03-23T00:45:43;10.82;;;6.30;;
45198;SDS011;30941;46.422;18.772;2023-03-23T00:48:10;11.80;;;6.68;;
45198;SDS011;30941;46.422;18.772;2023-03-23T00:50:39;10.13;;;6.82;;
45198;SDS011;30941;46.422;18.772;2023-03-23T00:53:22;10.23;;;6.53;;
45198;SDS011;30941;46.422;18.772;2023-03-23T00:55:48;13.15;;;6.65;;
45198;SDS011;30941;46.422;18.772;2023-03-23T00:58:14;10.10;;;6.70;;
45198;SDS011;30941;46.422;18.772;2023-03-23T01:00:40;10.00;;;6.82;;
45198;SDS011;30941;46.422;18.772;2023-03-23T01:03:06;10.15;;;6.78;;
45198;SDS011;30941;46.422;18.772;2023-03-23T01:05:34;12.00;;;8.18;;
45198;SDS011;30941;46.422;18.772;2023-03-23T01:08:01;10.85;;;7.03;;
45198;SDS011;30941;46.422;18.772;2023-03-23T01:10:27;11.95;;;7.70;;
45198;SDS011;30941;46.422;18.772;2023-03-23T01:12:53;12.93;;;8.18;;
45198;SDS011;30941;46.422;18.772;2023-03-23T01:15:19;15.00;;;8.38;;
45198;SDS011;30941;46.422;18.772;2023-03-23T01:17:45;15.88;;;10.05;;
45198;SDS011;30941;46.422;18.772;2023-03-23T01:20:12;18.17;;;10.40;;
45198;SDS011;30941;46.422;18.772;2023-03-23T01:22:39;18.05;;;11.68;;
45198;SDS011;30941;46.422;18.772;2023-03-23T01:25:05;25.70;;;14.45;;
45198;SDS011;30941;46.422;18.772;2023-03-23T01:27:31;22.75;;;13.00;;
45198;SDS011;30941;46.422;18.772;2023-03-23T01:29:57;17.60;;;11.60;;
45198;SDS011;30941;46.422;18.772;2023-03-23T01:32:22;22.13;;;11.82;;
45198;SDS011;30941;46.422;18.772;2023-03-23T01:34:48;19.38;;;12.73;;
45198;SDS011;30941;46.422;18.772;2023-03-23T01:37:13;20.95;;;12.32;;
45198;SDS011;30941;46.422;18.772;2023-03-23T01:39:40;22.00;;;12.13;;
45198;SDS011;30941;46.422;18.772;2023-03-23T01:42:07;20.40;;;11.75;;
45198;SDS011;30941;46.422;18.772;2023-03-23T01:46:59;21.40;;;10.43;;
45198;SDS011;30941;46.422;18.772;2023-03-23T01:49:27;14.75;;;9.68;;
45198;SDS011;30941;46.422;18.772;2023-03-23T01:52:19;19.35;;;10.95;;
45198;SDS011;30941;46.422;18.772;2023-03-23T01:54:51;14.77;;;9.25;;
45198;SDS011;30941;46.422;18.772;2023-03-23T01:57:19;19.85;;;10.80;;
45198;SDS011;30941;46.422;18.772;2023-03-23T01:59:47;19.20;;;10.40;;
45198;SDS011;30941;46.422;18.772;2023-03-23T02:02:15;13.82;;;9.27;;
45198;SDS011;30941;46.422;18.772;2023-03-23T02:04:41;12.68;;;7.88;;
45198;SDS011;30941;46.422;18.772;2023-03-23T02:07:07;13.27;;;7.95;;
45198;SDS011;30941;46.422;18.772;2023-03-23T02:09:34;13.07;;;8.05;;
45198;SDS011;30941;46.422;18.772;2023-03-23T02:11:59;10.50;;;6.72;;
45198;SDS011;30941;46.422;18.772;2023-03-23T02:14:26;9.52;;;6.57;;
45198;SDS011;30941;46.422;18.772;2023-03-23T02:16:57;11.50;;;7.55;;
45198;SDS011;30941;46.422;18.772;2023-03-23T02:19:41;10.77;;;6.53;;
45198;SDS011;30941;46.422;18.772;2023-03-23T02:30:49;13.50;;;8.38;;
45198;SDS011;30941;46.422;18.772;2023-03-23T02:38:51;13.98;;;8.30;;
45198;SDS011;30941;46.422;18.772;2023-03-23T02:41:21;18.67;;;10.43;;
45198;SDS011;30941;46.422;18.772;2023-03-23T02:43:49;13.70;;;9.43;;
45198;SDS011;30941;46.422;18.772;2023-03-23T02:46:15;17.58;;;9.93;;
45198;SDS011;30941;46.422;18.772;2023-03-23T02:48:41;15.05;;;9.23;;
45198;SDS011;30941;46.422;18.772;2023-03-23T02:51:08;15.95;;;10.32;;
45198;SDS011;30941;46.422;18.772;2023-03-23T02:53:36;13.60;;;9.68;;
45198;SDS011;30941;46.422;18.772;2023-03-23T02:56:02;18.65;;;10.50;;
45198;SDS011;30941;46.422;18.772;2023-03-23T02:58:30;18.83;;;11.50;;
45198;SDS011;30941;46.422;18.772;2023-03-23T03:00:55;21.45;;;11.68;;
45198;SDS011;30941;46.422;18.772;2023-03-23T03:03:22;20.42;;;10.50;;
45198;SDS011;30941;46.422;18.772;2023-03-23T03:05:58;22.83;;;11.85;;
45198;SDS011;30941;46.422;18.772;2023-03-23T03:08:50;18.30;;;11.13;;
45198;SDS011;30941;46.422;18.772;2023-03-23T03:11:19;17.25;;;11.02;;
45198;SDS011;30941;46.422;18.772;2023-03-23T03:21:17;29.77;;;13.05;;
45198;SDS011;30941;46.422;18.772;2023-03-23T03:23:45;25.65;;;13.00;;
45198;SDS011;30941;46.422;18.772;2023-03-23T03:26:14;25.20;;;13.50;;
45198;SDS011;30941;46.422;18.772;2023-03-23T03:28:41;21.75;;;13.05;;
45198;SDS011;30941;46.422;18.772;2023-03-23T03:31:09;25.40;;;14.52;;
45198;SDS011;30941;46.422;18.772;2023-03-23T03:33:34;25.27;;;14.57;;
45198;SDS011;30941;46.422;18.772;2023-03-23T03:36:01;26.75;;;14.88;;
45198;SDS011;30941;46.422;18.772;2023-03-23T03:38:29;25.88;;;14.48;;
45198;SDS011;30941;46.422;18.772;2023-03-23T03:40:55;27.98;;;14.15;;
45198;SDS011;30941;46.422;18.772;2023-03-23T03:43:21;25.05;;;15.55;;
45198;SDS011;30941;46.422;18.772;2023-03-23T03:45:46;24.02;;;15.15;;
45198;SDS011;30941;46.422;18.772;2023-03-23T03:48:11;23.88;;;14.68;;
45198;SDS011;30941;46.422;18.772;2023-03-23T03:50:37;25.92;;;16.08;;
45198;SDS011;30941;46.422;18.772;2023-03-23T03:53:03;23.65;;;14.27;;
45198;SDS011;30941;46.422;18.772;2023-03-23T03:55:30;26.55;;;14.88;;
45198;SDS011;30941;46.422;18.772;2023-03-23T03:58:00;26.00;;;16.48;;
45198;SDS011;30941;46.422;18.772;2023-03-23T04:00:26;24.83;;;15.20;;
45198;SDS011;30941;46.422;18.772;2023-03-23T04:02:51;29.25;;;16.88;;
45198;SDS011;30941;46.422;18.772;2023-03-23T04:05:19;25.65;;;15.73;;
45198;SDS011;30941;46.422;18.772;2023-03-23T04:07:45;26.67;;;16.10;;
45198;SDS011;30941;46.422;18.772;2023-03-23T04:10:14;27.23;;;16.30;;
45198;SDS011;30941;46.422;18.772;2023-03-23T04:12:40;28.75;;;16.52;;
45198;SDS011;30941;46.422;18.772;2023-03-23T04:15:05;28.33;;;17.20;;
45198;SDS011;30941;46.422;18.772;2023-03-23T04:17:32;26.42;;;16.73;;
45198;SDS011;30941;46.422;18.772;2023-03-23T04:19:58;27.70;;;16.77;;
45198;SDS011;30941;46.422;18.772;2023-03-23T04:22:25;27.85;;;17.27;;
45198;SDS011;30941;46.422;18.772;2023-03-23T04:24:55;31.77;;;17.75;;
45198;SDS011;30941;46.422;18.772;2023-03-23T04:27:24;26.42;;;16.52;;
45198;SDS011;30941;46.422;18.772;2023-03-23T04:29:50;28.30;;;17.55;;
45198;SDS011;30941;46.422;18.772;2023-03-23T04:32:15;29.77;;;17.67;;
45198;SDS011;30941;46.422;18.772;2023-03-23T04:34:43;28.90;;;17.48;;
45198;SDS011;30941;46.422;18.772;2023-03-23T04:37:09;33.78;;;16.95;;
45198;SDS011;30941;46.422;18.772;2023-03-23T04:39:34;30.55;;;17.92;;
45198;SDS011;30941;46.422;18.772;2023-03-23T04:42:00;28.38;;;17.05;;
45198;SDS011;30941;46.422;18.772;2023-03-23T04:44:26;34.70;;;18.33;;
45198;SDS011;30941;46.422;18.772;2023-03-23T04:46:52;31.30;;;17.95;;
45198;SDS011;30941;46.422;18.772;2023-03-23T04:49:19;30.55;;;18.83;;
45198;SDS011;30941;46.422;18.772;2023-03-23T04:51:46;33.08;;;20.08;;
45198;SDS011;30941;46.422;18.772;2023-03-23T04:54:11;33.60;;;18.63;;
45198;SDS011;30941;46.422;18.772;2023-03-23T04:56:37;29.05;;;18.67;;
45198;SDS011;30941;46.422;18.772;2023-03-23T04:59:03;34.35;;;21.38;;
45198;SDS011;30941;46.422;18.772;2023-03-23T05:01:28;31.25;;;19.20;;
45198;SDS011;30941;46.422;18.772;2023-03-23T05:03:54;33.72;;;19.02;;
45198;SDS011;30941;46.422;18.772;2023-03-23T05:06:19;31.20;;;18.50;;
45198;SDS011;30941;46.422;18.772;2023-03-23T05:08:45;30.98;;;18.73;;
45198;SDS011;30941;46.422;18.772;2023-03-23T05:11:10;29.42;;;18.15;;
45198;SDS011;30941;46.422;18.772;2023-03-23T05:13:37;30.73;;;19.42;;
45198;SDS011;30941;46.422;18.772;2023-03-23T05:16:03;34.00;;;19.63;;
45198;SDS011;30941;46.422;18.772;2023-03-23T05:18:29;38.35;;;19.38;;
45198;SDS011;30941;46.422;18.772;2023-03-23T05:20:55;31.45;;;18.15;;
45198;SDS011;30941;46.422;18.772;2023-03-23T05:23:20;30.00;;;18.75;;
45198;SDS011;30941;46.422;18.772;2023-03-23T05:25:52;36.15;;;20.20;;
45198;SDS011;30941;46.422;18.772;2023-03-23T05:28:20;33.47;;;19.88;;
45198;SDS011;30941;46.422;18.772;2023-03-23T05:30:47;42.67;;;18.98;;
45198;SDS011;30941;46.422;18.772;2023-03-23T05:33:12;29.35;;;19.05;;
45198;SDS011;30941;46.422;18.772;2023-03-23T05:35:38;40.00;;;21.85;;
45198;SDS011;30941;46.422;18.772;2023-03-23T05:38:03;39.90;;;22.00;;
45198;SDS011;30941;46.422;18.772;2023-03-23T05:40:29;38.75;;;20.98;;
45198;SDS011;30941;46.422;18.772;2023-03-23T05:42:55;50.78;;;24.80;;
45198;SDS011;30941;46.422;18.772;2023-03-23T05:45:23;52.40;;;31.13;;
45198;SDS011;30941;46.422;18.772;2023-03-23T05:47:49;48.42;;;29.73;;
45198;SDS011;30941;46.422;18.772;2023-03-23T05:50:15;51.95;;;31.02;;
45198;SDS011;30941;46.422;18.772;2023-03-23T05:52:41;47.60;;;31.02;;
45198;SDS011;30941;46.422;18.772;2023-03-23T05:55:07;51.03;;;29.50;;
45198;SDS011;30941;46.422;18.772;2023-03-23T05:57:33;46.20;;;29.67;;
45198;SDS011;30941;46.422;18.772;2023-03-23T05:59:59;42.55;;;26.33;;
45198;SDS011;30941;46.422;18.772;2023-03-23T06:02:25;39.92;;;24.95;;
45198;SDS011;30941;46.422;18.772;2023-03-23T06:04:53;35.70;;;20.08;;
45198;SDS011;30941;46.422;18.772;2023-03-23T06:07:22;31.83;;;19.35;;
45198;SDS011;30941;46.422;18.772;2023-03-23T06:09:51;32.78;;;18.73;;
45198;SDS011;30941;46.422;18.772;2023-03-23T06:12:17;34.83;;;20.85;;
45198;SDS011;30941;46.422;18.772;2023-03-23T06:14:46;32.03;;;19.67;;
45198;SDS011;30941;46.422;18.772;2023-03-23T06:17:13;32.42;;;19.77;;
45198;SDS011;30941;46.422;18.772;2023-03-23T06:19:40;31.55;;;17.95;;
45198;SDS011;30941;46.422;18.772;2023-03-23T06:22:05;32.80;;;19.02;;
45198;SDS011;30941;46.422;18.772;2023-03-23T06:24:31;27.48;;;17.50;;
45198;SDS011;30941;46.422;18.772;2023-03-23T06:27:00;29.00;;;18.95;;
45198;SDS011;30941;46.422;18.772;2023-03-23T06:29:26;24.60;;;17.80;;
45198;SDS011;30941;46.422;18.772;2023-03-23T06:31:52;27.98;;;18.38;;
45198;SDS011;30941;46.422;18.772;2023-03-23T06:34:21;26.98;;;17.55;;
45198;SDS011;30941;46.422;18.772;2023-03-23T06:36:47;24.77;;;17.38;;
45198;SDS011;30941;46.422;18.772;2023-03-23T06:39:12;27.60;;;17.20;;
45198;SDS011;30941;46.422;18.772;2023-03-23T06:41:38;24.67;;;17.40;;
45198;SDS011;30941;46.422;18.772;2023-03-23T06:44:04;27.98;;;16.02;;
45198;SDS011;30941;46.422;18.772;2023-03-23T06:46:31;23.60;;;16.60;;
45198;SDS011;30941;46.422;18.772;2023-03-23T06:48:56;24.50;;;16.95;;
45198;SDS011;30941;46.422;18.772;2023-03-23T06:51:22;23.48;;;16.65;;
45198;SDS011;30941;46.422;18.772;2023-03-23T06:53:47;24.65;;;16.98;;
45198;SDS011;30941;46.422;18.772;2023-03-23T06:56:13;24.90;;;16.92;;
45198;SDS011;30941;46.422;18.772;2023-03-23T06:58:39;23.75;;;15.80;;
45198;SDS011;30941;46.422;18.772;2023-03-23T07:01:05;23.33;;;16.98;;
45198;SDS011;30941;46.422;18.772;2023-03-23T07:03:31;23.73;;;15.50;;
45198;SDS011;30941;46.422;18.772;2023-03-23T07:05:56;21.65;;;16.15;;
45198;SDS011;30941;46.422;18.772;2023-03-23T07:08:22;22.05;;;15.93;;
45198;SDS011;30941;46.422;18.772;2023-03-23T07:10:50;22.23;;;16.02;;
45198;SDS011;30941;46.422;18.772;2023-03-23T07:13:17;26.92;;;17.40;;
45198;SDS011;30941;46.422;18.772;2023-03-23T07:15:43;25.83;;;16.35;;
45198;SDS011;30941;46.422;18.772;2023-03-23T07:18:09;25.30;;;17.88;;
45198;SDS011;30941;46.422;18.772;2023-03-23T07:20:34;25.55;;;17.63;;
45198;SDS011;30941;46.422;18.772;2023-03-23T07:23:00;24.88;;;18.23;;
45198;SDS011;30941;46.422;18.772;2023-03-23T07:25:26;24.00;;;17.90;;
45198;SDS011;30941;46.422;18.772;2023-03-23T07:27:52;24.92;;;17.40;;
45198;SDS011;30941;46.422;18.772;2023-03-23T07:30:17;19.45;;;15.77;;
45198;SDS011;30941;46.422;18.772;2023-03-23T07:32:43;21.80;;;15.48;;
45198;SDS011;30941;46.422;18.772;2023-03-23T07:35:08;23.38;;;16.73;;
45198;SDS011;30941;46.422;18.772;2023-03-23T07:37:34;20.02;;;14.20;;
45198;SDS011;30941;46.422;18.772;2023-03-23T07:40:01;24.58;;;15.88;;
45198;SDS011;30941;46.422;18.772;2023-03-23T07:42:39;23.30;;;14.85;;
45198;SDS011;30941;46.422;18.772;2023-03-23T07:45:05;20.40;;;14.77;;
45198;SDS011;30941;46.422;18.772;2023-03-23T07:47:31;24.23;;;15.73;;
45198;SDS011;30941;46.422;18.772;2023-03-23T07:49:57;21.27;;;14.40;;
45198;SDS011;30941;46.422;18.772;2023-03-23T07:52:22;20.10;;;14.10;;
45198;SDS011;30941;46.422;18.772;2023-03-23T07:54:48;22.10;;;14.45;;
45198;SDS011;30941;46.422;18.772;2023-03-23T07:57:14;18.00;;;13.80;;
45198;SDS011;30941;46.422;18.772;2023-03-23T07:59:39;18.75;;;13.45;;
45198;SDS011;30941;46.422;18.772;2023-03-23T08:02:07;18.67;;;13.73;;
45198;SDS011;30941;46.422;18.772;2023-03-23T08:04:34;22.55;;;13.32;;
45198;SDS011;30941;46.422;18.772;2023-03-23T08:07:02;20.80;;;13.93;;
45198;SDS011;30941;46.422;18.772;2023-03-23T08:09:29;16.58;;;12.25;;
45198;SDS011;30941;46.422;18.772;2023-03-23T08:11:55;22.13;;;12.65;;
45198;SDS011;30941;46.422;18.772;2023-03-23T08:14:21;16.10;;;11.82;;
45198;SDS011;30941;46.422;18.772;2023-03-23T08:16:46;19.58;;;11.90;;
45198;SDS011;30941;46.422;18.772;2023-03-23T08:19:13;19.63;;;13.32;;
45198;SDS011;30941;46.422;18.772;2023-03-23T08:21:38;14.63;;;10.23;;
45198;SDS011;30941;46.422;18.772;2023-03-23T08:24:04;17.08;;;10.57;;
45198;SDS011;30941;46.422;18.772;2023-03-23T08:26:30;16.48;;;10.85;;
45198;SDS011;30941;46.422;18.772;2023-03-23T08:28:56;16.10;;;11.23;;
45198;SDS011;30941;46.422;18.772;2023-03-23T08:31:22;15.13;;;10.55;;
45198;SDS011;30941;46.422;18.772;2023-03-23T08:33:48;17.98;;;11.88;;
45198;SDS011;30941;46.422;18.772;2023-03-23T08:36:14;18.67;;;12.05;;
45198;SDS011;30941;46.422;18.772;2023-03-23T08:38:39;17.50;;;11.65;;
45198;SDS011;30941;46.422;18.772;2023-03-23T08:41:05;16.92;;;10.15;;
45198;SDS011;30941;46.422;18.772;2023-03-23T08:43:31;16.60;;;9.70;;
45198;SDS011;30941;46.422;18.772;2023-03-23T08:45:58;19.38;;;9.73;;
45198;SDS011;30941;46.422;18.772;2023-03-23T08:48:24;14.35;;;9.82;;
45198;SDS011;30941;46.422;18.772;2023-03-23T08:50:49;12.48;;;9.02;;
45198;SDS011;30941;46.422;18.772;2023-03-23T08:53:16;11.68;;;9.23;;
45198;SDS011;30941;46.422;18.772;2023-03-23T08:55:43;14.85;;;9.45;;
45198;SDS011;30941;46.422;18.772;2023-03-23T08:58:09;11.10;;;8.60;;
45198;SDS011;30941;46.422;18.772;2023-03-23T09:00:35;15.63;;;8.25;;
45198;SDS011;30941;46.422;18.772;2023-03-23T09:03:00;11.70;;;8.20;;
45198;SDS011;30941;46.422;18.772;2023-03-23T09:05:27;14.93;;;7.57;;
45198;SDS011;30941;46.422;18.772;2023-03-23T09:07:55;12.00;;;6.90;;
45198;SDS011;30941;46.422;18.772;2023-03-23T09:10:23;10.93;;;6.97;;
45198;SDS011;30941;46.422;18.772;2023-03-23T09:12:51;9.90;;;6.90;;
45198;SDS011;30941;46.422;18.772;2023-03-23T09:15:17;10.65;;;7.00;;
45198;SDS011;30941;46.422;18.772;2023-03-23T09:17:47;8.32;;;6.28;;
45198;SDS011;30941;46.422;18.772;2023-03-23T09:20:17;10.80;;;6.93;;
45198;SDS011;30941;46.422;18.772;2023-03-23T09:22:46;9.48;;;6.25;;
45198;SDS011;30941;46.422;18.772;2023-03-23T09:25:14;9.82;;;6.50;;
45198;SDS011;30941;46.422;18.772;2023-03-23T09:27:44;10.15;;;6.28;;
45198;SDS011;30941;46.422;18.772;2023-03-23T09:30:12;8.75;;;5.25;;
45198;SDS011;30941;46.422;18.772;2023-03-23T09:32:39;6.78;;;4.72;;
45198;SDS011;30941;46.422;18.772;2023-03-23T09:35:05;7.93;;;5.78;;
45198;SDS011;30941;46.422;18.772;2023-03-23T09:37:33;7.28;;;4.32;;
45198;SDS011;30941;46.422;18.772;2023-03-23T09:40:01;5.95;;;4.43;;
45198;SDS011;30941;46.422;18.772;2023-03-23T09:54:09;7.38;;;4.75;;
45198;SDS011;30941;46.422;18.772;2023-03-23T09:56:48;8.98;;;4.57;;
45198;SDS011;30941;46.422;18.772;2023-03-23T09:59:18;7.80;;;3.42;;
45198;SDS011;30941;46.422;18.772;2023-03-23T10:01:48;8.38;;;3.60;;
45198;SDS011;30941;46.422;18.772;2023-03-23T10:04:19;7.38;;;3.75;;
45198;SDS011;30941;46.422;18.772;2023-03-23T10:06:51;5.68;;;3.60;;
45198;SDS011;30941;46.422;18.772;2023-03-23T10:09:18;9.15;;;4.20;;
45198;SDS011;30941;46.422;18.772;2023-03-23T10:28:34;6.75;;;4.40;;
45198;SDS011;30941;46.422;18.772;2023-03-23T10:31:02;6.15;;;4.28;;
45198;SDS011;30941;46.422;18.772;2023-03-23T10:38:59;5.88;;;3.88;;
45198;SDS011;30941;46.422;18.772;2023-03-23T10:41:28;8.75;;;3.90;;
45198;SDS011;30941;46.422;18.772;2023-03-23T10:43:54;6.60;;;3.85;;
45198;SDS011;30941;46.422;18.772;2023-03-23T10:46:39;6.15;;;3.42;;
45198;SDS011;30941;46.422;18.772;2023-03-23T10:49:08;4.68;;;3.63;;
45198;SDS011;30941;46.422;18.772;2023-03-23T10:51:37;5.70;;;3.28;;
45198;SDS011;30941;46.422;18.772;2023-03-23T10:54:05;4.63;;;3.08;;
45198;SDS011;30941;46.422;18.772;2023-03-23T10:56:36;6.45;;;3.20;;
45198;SDS011;30941;46.422;18.772;2023-03-23T10:59:17;5.47;;;3.40;;
45198;SDS011;30941;46.422;18.772;2023-03-23T11:01:49;4.82;;;3.58;;
45198;SDS011;30941;46.422;18.772;2023-03-23T11:04:18;4.65;;;3.50;;
45198;SDS011;30941;46.422;18.772;2023-03-23T11:06:54;5.25;;;3.47;;
45198;SDS011;30941;46.422;18.772;2023-03-23T11:09:51;6.35;;;3.80;;
45198;SDS011;30941;46.422;18.772;2023-03-23T11:12:18;4.80;;;3.20;;
45198;SDS011;30941;46.422;18.772;2023-03-23T11:14:45;4.88;;;3.00;;
45198;SDS011;30941;46.422;18.772;2023-03-23T11:17:22;5.13;;;3.22;;
45198;SDS011;30941;46.422;18.772;2023-03-23T11:19:49;4.15;;;3.00;;
45198;SDS011;30941;46.422;18.772;2023-03-23T11:22:25;4.63;;;3.20;;
45198;SDS011;30941;46.422;18.772;2023-03-23T11:24:53;4.95;;;2.88;;
45198;SDS011;30941;46.422;18.772;2023-03-23T11:27:20;4.95;;;3.28;;
45198;SDS011;30941;46.422;18.772;2023-03-23T11:32:44;4.82;;;3.22;;
45198;SDS011;30941;46.422;18.772;2023-03-23T11:35:15;10.30;;;3.55;;
45198;SDS011;30941;46.422;18.772;2023-03-23T11:37:46;5.55;;;2.92;;
45198;SDS011;30941;46.422;18.772;2023-03-23T11:40:19;4.57;;;2.92;;
45198;SDS011;30941;46.422;18.772;2023-03-23T11:42:47;5.75;;;2.88;;
45198;SDS011;30941;46.422;18.772;2023-03-23T11:45:24;4.57;;;3.03;;
45198;SDS011;30941;46.422;18.772;2023-03-23T11:56:33;4.85;;;2.72;;
45198;SDS011;30941;46.422;18.772;2023-03-23T11:59:00;3.55;;;2.67;;
45198;SDS011;30941;46.422;18.772;2023-03-23T12:07:27;4.28;;;2.65;;
45198;SDS011;30941;46.422;18.772;2023-03-23T12:10:29;5.13;;;2.53;;
45198;SDS011;30941;46.422;18.772;2023-03-23T12:13:19;8.45;;;3.05;;
45198;SDS011;30941;46.422;18.772;2023-03-23T12:16:52;5.72;;;2.40;;
45198;SDS011;30941;46.422;18.772;2023-03-23T12:27:06;5.05;;;2.60;;
45198;SDS011;30941;46.422;18.772;2023-03-23T12:29:49;5.50;;;3.15;;
45198;SDS011;30941;46.422;18.772;2023-03-23T12:32:23;4.60;;;2.60;;
45198;SDS011;30941;46.422;18.772;2023-03-23T12:42:58;7.13;;;3.03;;
45198;SDS011;30941;46.422;18.772;2023-03-23T12:48:20;7.25;;;3.00;;
45198;SDS011;30941;46.422;18.772;2023-03-23T12:51:09;4.38;;;2.50;;
45198;SDS011;30941;46.422;18.772;2023-03-23T12:59:11;4.20;;;2.75;;
45198;SDS011;30941;46.422;18.772;2023-03-23T13:01:43;6.38;;;3.45;;
45198;SDS011;30941;46.422;18.772;2023-03-23T13:04:13;4.38;;;2.97;;
45198;SDS011;30941;46.422;18.772;2023-03-23T13:06:42;6.50;;;3.00;;
45198;SDS011;30941;46.422;18.772;2023-03-23T13:11:47;7.43;;;2.70;;
45198;SDS011;30941;46.422;18.772;2023-03-23T13:25:18;6.80;;;3.40;;
45198;SDS011;30941;46.422;18.772;2023-03-23T13:27:59;7.50;;;3.20;;
45198;SDS011;30941;46.422;18.772;2023-03-23T13:30:26;6.28;;;3.10;;
45198;SDS011;30941;46.422;18.772;2023-03-23T13:33:00;9.02;;;2.80;;
45198;SDS011;30941;46.422;18.772;2023-03-23T13:35:31;9.93;;;3.30;;
45198;SDS011;30941;46.422;18.772;2023-03-23T13:37:59;7.25;;;2.90;;
45198;SDS011;30941;46.422;18.772;2023-03-23T13:40:30;4.30;;;2.97;;
45198;SDS011;30941;46.422;18.772;2023-03-23T13:42:59;6.25;;;3.10;;
45198;SDS011;30941;46.422;18.772;2023-03-23T13:50:48;4.80;;;2.85;;
45198;SDS011;30941;46.422;18.772;2023-03-23T13:56:22;7.00;;;2.70;;
45198;SDS011;30941;46.422;18.772;2023-03-23T13:59:14;4.00;;;2.70;;
45198;SDS011;30941;46.422;18.772;2023-03-23T14:07:57;5.10;;;2.85;;
45198;SDS011;30941;46.422;18.772;2023-03-23T14:10:33;5.25;;;2.95;;
45198;SDS011;30941;46.422;18.772;2023-03-23T14:13:20;3.72;;;2.50;;
45198;SDS011;30941;46.422;18.772;2023-03-23T14:15:57;3.35;;;2.40;;
45198;SDS011;30941;46.422;18.772;2023-03-23T14:18:30;5.88;;;2.72;;
45198;SDS011;30941;46.422;18.772;2023-03-23T14:21:02;4.28;;;2.70;;
45198;SDS011;30941;46.422;18.772;2023-03-23T14:23:30;5.55;;;2.60;;
45198;SDS011;30941;46.422;18.772;2023-03-23T14:26:01;5.28;;;2.72;;
45198;SDS011;30941;46.422;18.772;2023-03-23T14:28:35;6.32;;;2.78;;
45198;SDS011;30941;46.422;18.772;2023-03-23T14:31:03;4.93;;;2.80;;
45198;SDS011;30941;46.422;18.772;2023-03-23T14:33:29;4.53;;;2.88;;
45198;SDS011;30941;46.422;18.772;2023-03-23T14:35:56;4.18;;;2.33;;
45198;SDS011;30941;46.422;18.772;2023-03-23T14:38:23;5.25;;;2.92;;
45198;SDS011;30941;46.422;18.772;2023-03-23T14:40:51;4.88;;;2.80;;
45198;SDS011;30941;46.422;18.772;2023-03-23T14:43:17;4.13;;;2.67;;
45198;SDS011;30941;46.422;18.772;2023-03-23T14:45:46;4.35;;;2.70;;
45198;SDS011;30941;46.422;18.772;2023-03-23T14:48:15;4.78;;;2.50;;
45198;SDS011;30941;46.422;18.772;2023-03-23T14:50:42;3.80;;;2.58;;
45198;SDS011;30941;46.422;18.772;2023-03-23T14:55:59;5.25;;;2.35;;
45198;SDS011;30941;46.422;18.772;2023-03-23T14:58:27;5.60;;;2.55;;
45198;SDS011;30941;46.422;18.772;2023-03-23T15:00:59;7.30;;;2.30;;
45198;SDS011;30941;46.422;18.772;2023-03-23T15:03:28;6.13;;;2.53;;
45198;SDS011;30941;46.422;18.772;2023-03-23T15:05:58;3.70;;;2.33;;
45198;SDS011;30941;46.422;18.772;2023-03-23T15:08:33;6.32;;;2.67;;
45198;SDS011;30941;46.422;18.772;2023-03-23T15:11:07;4.57;;;2.10;;
45198;SDS011;30941;46.422;18.772;2023-03-23T15:13:54;5.97;;;2.67;;
45198;SDS011;30941;46.422;18.772;2023-03-23T15:16:29;3.78;;;2.55;;
45198;SDS011;30941;46.422;18.772;2023-03-23T15:18:59;5.88;;;2.50;;
45198;SDS011;30941;46.422;18.772;2023-03-23T15:21:30;9.38;;;2.50;;
45198;SDS011;30941;46.422;18.772;2023-03-23T15:24:00;5.85;;;2.58;;
45198;SDS011;30941;46.422;18.772;2023-03-23T15:26:34;6.15;;;2.53;;
45198;SDS011;30941;46.422;18.772;2023-03-23T15:31:32;4.40;;;2.67;;
45198;SDS011;30941;46.422;18.772;2023-03-23T15:34:01;5.45;;;3.53;;
45198;SDS011;30941;46.422;18.772;2023-03-23T15:36:30;7.45;;;2.40;;
45198;SDS011;30941;46.422;18.772;2023-03-23T15:38:56;8.60;;;3.05;;
45198;SDS011;30941;46.422;18.772;2023-03-23T15:41:32;4.78;;;2.95;;
45198;SDS011;30941;46.422;18.772;2023-03-23T15:44:10;5.90;;;2.70;;
45198;SDS011;30941;46.422;18.772;2023-03-23T15:46:47;5.15;;;2.88;;
45198;SDS011;30941;46.422;18.772;2023-03-23T15:49:14;6.07;;;3.45;;
45198;SDS011;30941;46.422;18.772;2023-03-23T15:51:40;4.22;;;2.22;;
45198;SDS011;30941;46.422;18.772;2023-03-23T15:54:07;5.05;;;3.53;;
45198;SDS011;30941;46.422;18.772;2023-03-23T15:56:37;6.50;;;2.90;;
45198;SDS011;30941;46.422;18.772;2023-03-23T15:59:03;4.85;;;2.80;;
45198;SDS011;30941;46.422;18.772;2023-03-23T16:01:28;4.28;;;2.75;;
45198;SDS011;30941;46.422;18.772;2023-03-23T16:03:56;4.28;;;2.47;;
45198;SDS011;30941;46.422;18.772;2023-03-23T16:06:30;5.63;;;2.70;;
45198;SDS011;30941;46.422;18.772;2023-03-23T16:08:56;6.10;;;2.88;;
45198;SDS011;30941;46.422;18.772;2023-03-23T16:11:23;4.10;;;2.83;;
45198;SDS011;30941;46.422;18.772;2023-03-23T16:13:50;5.03;;;2.50;;
45198;SDS011;30941;46.422;18.772;2023-03-23T16:16:27;5.38;;;2.70;;
45198;SDS011;30941;46.422;18.772;2023-03-23T16:18:56;5.25;;;2.60;;
45198;SDS011;30941;46.422;18.772;2023-03-23T16:21:22;5.97;;;2.83;;
45198;SDS011;30941;46.422;18.772;2023-03-23T16:23:47;5.70;;;2.67;;
45198;SDS011;30941;46.422;18.772;2023-03-23T16:26:13;6.47;;;2.80;;
45198;SDS011;30941;46.422;18.772;2023-03-23T16:28:39;6.40;;;2.58;;
45198;SDS011;30941;46.422;18.772;2023-03-23T16:31:05;4.57;;;2.55;;
45198;SDS011;30941;46.422;18.772;2023-03-23T16:33:30;5.85;;;2.90;;
45198;SDS011;30941;46.422;18.772;2023-03-23T16:35:56;5.18;;;2.83;;
45198;SDS011;30941;46.422;18.772;2023-03-23T16:38:22;4.30;;;2.95;;
45198;SDS011;30941;46.422;18.772;2023-03-23T16:40:47;5.10;;;2.75;;
45198;SDS011;30941;46.422;18.772;2023-03-23T16:43:13;4.68;;;2.90;;
45198;SDS011;30941;46.422;18.772;2023-03-23T16:45:39;5.00;;;2.40;;